Time;durP1;ratioP1;P1;durP2;ratioP2;P2;SDS_P1;SDS_P2;PMS_P1;PMS_P2;Temp;Humidity;BMP_temperature;BMP_pressure;BME280_temperature;BME280_humidity;BME280_pressure;Samples;Min_cycle;Max_cycle;Signal;HPM_P1;HPM_P2
2022/07/29 00:01:33;;;;;;;11.60;8.90;;;30.00;99.90;;;;;;4125185;28;20043;-69
2022/07/29 00:03:38;;;;;;;13.32;9.02;;;30.10;99.90;;;;;;4125687;28;20061;-67
2022/07/29 00:05:43;;;;;;;13.10;9.00;;;30.10;99.90;;;;;;4121834;28;20089;-67
2022/07/29 00:07:49;;;;;;;12.73;9.25;;;30.10;99.90;;;;;;4127126;28;20116;-68
2022/07/29 00:09:54;;;;;;;14.02;9.20;;;30.20;99.90;;;;;;4118516;28;20138;-68
2022/07/29 00:12:00;;;;;;;11.10;8.85;;;30.30;99.90;;;;;;4128452;28;20046;-66
2022/07/29 00:14:06;;;;;;;12.98;9.52;;;30.30;99.90;;;;;;4132251;28;20061;-66
2022/07/29 00:16:11;;;;;;;11.15;9.20;;;30.30;99.90;;;;;;4129122;28;20463;-66
2022/07/29 00:18:15;;;;;;;13.25;9.27;;;30.30;99.90;;;;;;4132814;28;20046;-66
2022/07/29 00:20:21;;;;;;;10.15;9.10;;;30.40;99.90;;;;;;4138057;28;20144;-66
2022/07/29 00:22:26;;;;;;;14.85;9.55;;;30.40;99.90;;;;;;4136870;28;20239;-66
2022/07/29 00:24:30;;;;;;;13.80;10.10;;;30.40;99.90;;;;;;4128058;28;20129;-67
2022/07/29 00:26:35;;;;;;;12.18;9.25;;;30.50;99.90;;;;;;4136225;28;20140;-68
2022/07/29 00:28:39;;;;;;;13.88;9.18;;;30.50;99.90;;;;;;4135981;28;20049;-67
2022/07/29 00:30:44;;;;;;;11.52;9.18;;;30.60;99.90;;;;;;4131935;28;20058;-67
2022/07/29 00:32:49;;;;;;;12.88;9.50;;;30.60;99.90;;;;;;4129398;28;20501;-65
2022/07/29 00:37:10;;;;;;;19.35;12.18;;;30.60;99.90;;;;;;4130791;28;20058;-67
2022/07/29 00:39:18;;;;;;;15.80;12.30;;;30.70;99.90;;;;;;4134066;28;20046;-66
2022/07/29 00:41:22;;;;;;;17.48;12.85;;;30.70;99.90;;;;;;4138522;28;20150;-65
2022/07/29 00:43:27;;;;;;;20.85;13.43;;;30.70;99.90;;;;;;4132223;28;20095;-64
2022/07/29 00:45:37;;;;;;;14.05;10.88;;;30.70;99.90;;;;;;4127350;28;20108;-65
2022/07/29 00:47:42;;;;;;;15.13;10.75;;;30.80;99.90;;;;;;4132279;28;20062;-65
2022/07/29 00:49:46;;;;;;;20.52;11.27;;;30.70;99.90;;;;;;4135585;28;20275;-70
2022/07/29 00:51:51;;;;;;;22.20;10.45;;;30.70;99.90;;;;;;4126589;28;20072;-66
2022/07/29 00:53:56;;;;;;;11.27;9.10;;;30.80;99.90;;;;;;4124757;28;20236;-66
2022/07/29 00:56:00;;;;;;;12.65;9.02;;;30.90;99.90;;;;;;4126297;28;20062;-67
2022/07/29 00:58:07;;;;;;;12.52;9.10;;;30.90;99.90;;;;;;4126064;28;20046;-66
2022/07/29 01:00:15;;;;;;;9.98;8.48;;;30.90;99.90;;;;;;4127239;28;20061;-66
2022/07/29 01:02:19;;;;;;;10.68;7.72;;;30.90;99.90;;;;;;4127158;28;20143;-67
2022/07/29 01:04:26;;;;;;;11.70;8.18;;;30.80;99.90;;;;;;4126545;28;20239;-67
2022/07/29 01:06:31;;;;;;;9.75;8.43;;;31.00;99.90;;;;;;4126817;28;20046;-67
2022/07/29 01:08:35;;;;;;;11.23;8.25;;;31.10;99.90;;;;;;3251669;28;10000996;-68
2022/07/29 01:10:42;;;;;;;11.63;7.97;;;31.10;99.90;;;;;;4149048;28;20464;-67
2022/07/29 01:12:48;;;;;;;10.90;8.30;;;31.20;99.90;;;;;;4121267;28;20069;-66
2022/07/29 01:14:53;;;;;;;10.35;7.78;;;31.20;99.90;;;;;;4111164;28;20058;-67
2022/07/29 01:17:12;;;;;;;12.25;8.07;;;31.20;99.90;;;;;;4121501;28;20133;-68
2022/07/29 01:19:41;;;;;;;8.77;7.97;;;31.30;99.90;;;;;;4125385;28;20046;-67
2022/07/29 01:21:52;;;;;;;15.60;9.50;;;31.40;99.90;;;;;;4115771;28;20052;-67
2022/07/29 01:24:12;;;;;;;14.05;11.30;;;31.40;99.90;;;;;;4094412;28;20047;-67
2022/07/29 01:26:47;;;;;;;17.15;11.38;;;31.40;99.90;;;;;;4127951;28;20630;-67
2022/07/29 01:29:06;;;;;;;13.75;10.13;;;31.30;99.90;;;;;;4125266;28;20128;-67
2022/07/29 01:31:18;;;;;;;9.80;8.65;;;31.40;99.90;;;;;;4126667;28;20435;-67
2022/07/29 01:35:50;;;;;;;10.18;8.50;;;31.50;99.90;;;;;;4130045;28;20081;-67
2022/07/29 01:38:18;;;;;;;10.52;8.70;;;31.50;99.90;;;;;;4105271;28;20125;-66
2022/07/29 01:40:45;;;;;;;11.77;8.52;;;31.60;99.90;;;;;;4139739;28;20049;-67
2022/07/29 01:42:52;;;;;;;9.65;7.75;;;31.60;99.90;;;;;;4125882;28;20092;-66
2022/07/29 01:45:09;;;;;;;9.05;7.80;;;31.70;99.90;;;;;;4117427;28;20108;-67
2022/07/29 01:47:18;;;;;;;12.88;8.05;;;31.90;99.90;;;;;;4159886;28;20049;-67
2022/07/29 01:49:27;;;;;;;7.85;7.10;;;31.90;99.90;;;;;;3296181;28;10001447;-67
2022/07/29 01:51:45;;;;;;;9.35;8.07;;;32.00;99.90;;;;;;4125900;28;20054;-66
2022/07/29 01:54:07;;;;;;;11.80;7.63;;;32.00;99.90;;;;;;4128943;28;20111;-67
2022/07/29 01:56:12;;;;;;;9.65;7.90;;;32.00;99.90;;;;;;3277503;28;10000995;-66
2022/07/29 01:58:18;;;;;;;10.93;7.20;;;32.10;99.90;;;;;;4132633;28;20132;-67
2022/07/29 02:00:22;;;;;;;8.50;7.05;;;32.20;99.90;;;;;;4127645;28;20081;-69
2022/07/29 02:02:28;;;;;;;8.57;7.53;;;32.20;99.90;;;;;;4131401;28;20409;-67
2022/07/29 02:04:34;;;;;;;9.25;7.70;;;32.30;99.90;;;;;;4109377;28;20113;-67
2022/07/29 02:06:40;;;;;;;9.65;7.45;;;32.30;99.90;;;;;;4134951;28;20043;-66
2022/07/29 02:08:47;;;;;;;8.75;7.35;;;32.40;99.90;;;;;;4156513;28;20092;-67
2022/07/29 02:10:53;;;;;;;9.02;7.63;;;32.50;99.90;;;;;;4134451;28;20124;-68
2022/07/29 02:12:59;;;;;;;10.95;7.43;;;32.50;99.90;;;;;;4135305;28;20046;-67
2022/07/29 02:15:06;;;;;;;8.57;7.07;;;32.60;99.90;;;;;;4159358;28;20037;-68
2022/07/29 02:17:14;;;;;;;8.45;7.05;;;32.60;99.90;;;;;;4133475;28;20648;-66
2022/07/29 02:19:19;;;;;;;8.75;7.05;;;32.60;99.90;;;;;;4132202;28;20081;-66
2022/07/29 02:21:25;;;;;;;8.40;6.70;;;32.60;99.90;;;;;;4133021;28;20042;-68
2022/07/29 02:23:30;;;;;;;8.57;7.10;;;32.60;99.90;;;;;;4132333;28;20524;-66
2022/07/29 02:25:56;;;;;;;10.98;6.70;;;32.60;99.90;;;;;;4129590;28;20174;-67
2022/07/29 02:28:02;;;;;;;10.15;6.90;;;32.70;99.90;;;;;;4128761;28;20050;-66
2022/07/29 02:30:13;;;;;;;7.57;5.95;;;32.80;99.90;;;;;;4130482;28;20101;-68
2022/07/29 02:32:23;;;;;;;7.25;6.15;;;32.80;99.90;;;;;;3431643;28;10022119;-66
2022/07/29 02:34:29;;;;;;;12.35;6.93;;;32.90;99.90;;;;;;4144731;28;20250;-67
2022/07/29 02:36:36;;;;;;;8.10;6.20;;;32.90;99.90;;;;;;4127277;28;20504;-67
2022/07/29 02:38:50;;;;;;;9.27;6.50;;;32.90;99.90;;;;;;4132335;28;20328;-67
2022/07/29 02:40:57;;;;;;;8.88;6.15;;;33.00;99.90;;;;;;4137648;28;20118;-66
2022/07/29 02:43:03;;;;;;;10.88;6.60;;;33.00;99.90;;;;;;4130312;28;20077;-66
2022/07/29 02:45:10;;;;;;;8.75;6.45;;;33.00;99.90;;;;;;4132500;28;20062;-67
2022/07/29 02:47:37;;;;;;;8.50;6.25;;;33.10;99.90;;;;;;4113769;28;20078;-67
2022/07/29 02:50:09;;;;;;;6.75;6.10;;;33.20;99.90;;;;;;4131758;28;20065;-67
2022/07/29 02:52:44;;;;;;;8.38;6.50;;;33.20;99.90;;;;;;4127275;28;20038;-67
2022/07/29 02:55:28;;;;;;;7.20;6.50;;;33.20;99.80;;;;;;4131780;28;20056;-67
2022/07/29 02:57:45;;;;;;;6.80;6.15;;;33.30;99.40;;;;;;4135719;28;20405;-67
2022/07/29 03:00:03;;;;;;;7.30;6.20;;;33.40;99.30;;;;;;4105072;28;20105;-67
2022/07/29 03:02:08;;;;;;;8.30;6.28;;;33.50;99.10;;;;;;4118290;28;20524;-67
2022/07/29 03:04:12;;;;;;;7.63;6.38;;;33.50;98.80;;;;;;4131871;28;20501;-67
2022/07/29 03:06:19;;;;;;;8.07;6.50;;;33.60;98.80;;;;;;4135594;28;20077;-67
2022/07/29 03:08:40;;;;;;;6.80;5.68;;;33.50;98.60;;;;;;4133942;28;20049;-67
2022/07/29 03:10:45;;;;;;;8.60;6.70;;;33.60;98.60;;;;;;4135698;28;20084;-67
2022/07/29 03:12:57;;;;;;;7.43;6.50;;;33.60;98.80;;;;;;4134671;28;20046;-66
2022/07/29 03:15:02;;;;;;;7.45;6.05;;;33.70;98.70;;;;;;4132657;28;20034;-68
2022/07/29 03:17:07;;;;;;;8.07;6.15;;;33.70;98.60;;;;;;4133759;28;20050;-67
2022/07/29 03:19:12;;;;;;;9.73;6.50;;;33.80;98.10;;;;;;4136079;28;20144;-66
2022/07/29 03:21:17;;;;;;;6.65;5.30;;;33.70;97.70;;;;;;4134716;28;20054;-67
2022/07/29 03:23:23;;;;;;;6.70;6.10;;;33.70;97.70;;;;;;4136372;28;20042;-66
2022/07/29 03:25:38;;;;;;;6.68;5.78;;;33.60;97.60;;;;;;4133082;28;20081;-67
2022/07/29 03:27:43;;;;;;;9.70;6.03;;;33.60;97.90;;;;;;4135346;28;20042;-67
2022/07/29 03:29:47;;;;;;;8.70;6.38;;;33.60;97.70;;;;;;4137559;28;20500;-66
2022/07/29 03:31:55;;;;;;;8.35;6.50;;;33.50;97.80;;;;;;4126936;28;20046;-68
2022/07/29 03:34:00;;;;;;;8.82;6.45;;;33.50;97.40;;;;;;4133807;28;20042;-67
2022/07/29 03:36:05;;;;;;;7.15;6.45;;;33.40;97.70;;;;;;4134059;28;20046;-67
2022/07/29 03:38:12;;;;;;;11.88;6.28;;;33.40;97.20;;;;;;4135187;28;20457;-67
2022/07/29 03:40:41;;;;;;;6.53;5.88;;;33.30;97.40;;;;;;4130832;28;20054;-67
2022/07/29 03:42:45;;;;;;;7.80;6.10;;;33.30;97.40;;;;;;4133365;28;20072;-68
2022/07/29 03:44:54;;;;;;;8.48;6.28;;;33.20;97.30;;;;;;4136064;28;20133;-69
2022/07/29 03:47:01;;;;;;;7.53;6.35;;;33.20;97.40;;;;;;4134976;28;20124;-71
2022/07/29 03:49:08;;;;;;;6.93;6.15;;;33.40;97.40;;;;;;4136927;28;20333;-70
2022/07/29 03:51:17;;;;;;;8.52;5.88;;;33.50;97.50;;;;;;4129450;28;20048;-70
2022/07/29 03:53:37;;;;;;;9.32;6.50;;;33.50;97.00;;;;;;4135941;28;20568;-69
2022/07/29 03:55:43;;;;;;;6.57;5.93;;;33.40;96.90;;;;;;4131652;28;20066;-69
2022/07/29 03:57:51;;;;;;;8.02;5.78;;;33.50;96.80;;;;;;4170383;28;20075;-72
2022/07/29 03:59:55;;;;;;;7.50;5.80;;;33.60;96.80;;;;;;4111632;28;20125;-67
2022/07/29 04:02:00;;;;;;;6.68;5.60;;;33.60;96.80;;;;;;4129118;28;20130;-68
2022/07/29 04:04:07;;;;;;;7.50;5.70;;;33.60;96.70;;;;;;4130798;28;20058;-67
2022/07/29 04:06:11;;;;;;;8.02;6.22;;;33.60;96.90;;;;;;4128356;28;20050;-67
2022/07/29 04:08:16;;;;;;;8.93;5.68;;;33.70;96.80;;;;;;4127670;28;20081;-69
2022/07/29 04:10:23;;;;;;;6.70;5.68;;;33.80;96.50;;;;;;4132210;28;20055;-67
2022/07/29 04:12:34;;;;;;;6.40;5.72;;;34.00;95.50;;;;;;4132135;28;20382;-67
2022/07/29 04:14:39;;;;;;;6.38;5.78;;;34.00;95.40;;;;;;4133285;28;20046;-66
2022/07/29 04:16:48;;;;;;;7.38;5.72;;;33.80;95.30;;;;;;4133395;28;20571;-67
2022/07/29 04:18:52;;;;;;;6.45;5.85;;;33.70;96.10;;;;;;4130994;28;20038;-67
2022/07/29 04:21:00;;;;;;;6.07;5.45;;;33.70;96.30;;;;;;4128130;28;20089;-66
2022/07/29 04:23:06;;;;;;;6.13;5.43;;;33.90;95.90;;;;;;4129642;28;20133;-68
2022/07/29 04:25:11;;;;;;;8.38;6.13;;;34.10;95.70;;;;;;4130064;28;20053;-67
2022/07/29 04:27:15;;;;;;;6.70;5.22;;;34.10;96.00;;;;;;4128706;28;20046;-68
2022/07/29 04:29:20;;;;;;;7.38;5.10;;;34.10;96.20;;;;;;4134915;28;20042;-67
2022/07/29 04:31:25;;;;;;;6.20;5.55;;;34.10;96.10;;;;;;4136117;28;20038;-67
2022/07/29 04:33:30;;;;;;;8.07;5.63;;;34.10;95.80;;;;;;4139291;28;20050;-67
2022/07/29 04:35:36;;;;;;;6.70;5.68;;;34.00;96.00;;;;;;4139112;28;20096;-67
2022/07/29 04:37:52;;;;;;;6.60;5.65;;;34.20;96.10;;;;;;4128729;28;20243;-68
2022/07/29 04:39:57;;;;;;;6.30;5.38;;;34.30;95.90;;;;;;4127738;28;20258;-67
2022/07/29 04:42:02;;;;;;;7.90;5.70;;;34.40;95.50;;;;;;4132007;28;20049;-66
2022/07/29 04:44:10;;;;;;;9.68;5.78;;;34.40;95.10;;;;;;4134356;28;20045;-69
2022/07/29 04:46:16;;;;;;;6.70;5.47;;;34.30;94.90;;;;;;4128474;28;20066;-68
2022/07/29 04:48:21;;;;;;;6.75;5.22;;;34.20;95.20;;;;;;4130222;28;20423;-67
2022/07/29 04:50:31;;;;;;;8.82;5.85;;;34.20;95.20;;;;;;4130060;28;20512;-68
2022/07/29 04:52:36;;;;;;;6.85;5.55;;;34.10;95.40;;;;;;4128991;28;20034;-68
2022/07/29 04:54:42;;;;;;;7.57;5.72;;;34.10;95.70;;;;;;4130428;28;20050;-68
2022/07/29 04:56:47;;;;;;;7.50;6.10;;;34.10;95.60;;;;;;4127193;28;20149;-68
2022/07/29 04:58:52;;;;;;;8.98;5.95;;;34.10;95.50;;;;;;4127911;28;20437;-67
2022/07/29 05:00:56;;;;;;;7.00;6.22;;;34.10;95.40;;;;;;4127853;28;20030;-68
2022/07/29 05:03:01;;;;;;;6.88;6.07;;;34.10;95.30;;;;;;4126894;28;20137;-67
2022/07/29 05:05:06;;;;;;;6.40;5.78;;;34.00;95.20;;;;;;4128580;28;20097;-67
2022/07/29 05:07:11;;;;;;;8.13;6.35;;;34.00;95.40;;;;;;4146129;28;20428;-67
2022/07/29 05:09:17;;;;;;;8.95;6.38;;;33.90;95.40;;;;;;4128737;28;20054;-67
2022/07/29 05:11:22;;;;;;;7.70;6.90;;;33.90;95.40;;;;;;4125692;28;20654;-67
2022/07/29 05:13:34;;;;;;;9.10;6.32;;;33.80;95.60;;;;;;4128746;28;20057;-67
2022/07/29 05:15:49;;;;;;;7.20;5.95;;;33.60;95.30;;;;;;4127791;28;20426;-67
2022/07/29 05:17:53;;;;;;;6.45;5.72;;;33.60;95.80;;;;;;4128348;28;20042;-68
2022/07/29 05:20:00;;;;;;;8.27;5.70;;;33.60;95.60;;;;;;4130770;28;20042;-67
2022/07/29 05:22:05;;;;;;;7.70;5.72;;;33.60;95.40;;;;;;4128662;28;20069;-67
2022/07/29 05:24:10;;;;;;;6.88;5.38;;;33.50;95.30;;;;;;4129629;28;20505;-68
2022/07/29 05:26:20;;;;;;;8.02;5.60;;;33.60;95.40;;;;;;4128743;28;20042;-68
2022/07/29 05:28:24;;;;;;;7.50;6.30;;;33.60;95.50;;;;;;4127224;28;20524;-67
2022/07/29 05:30:29;;;;;;;7.45;5.60;;;33.30;96.40;;;;;;4128235;28;20133;-67
2022/07/29 05:32:34;;;;;;;12.73;6.00;;;33.00;96.10;;;;;;4128814;28;20074;-66
2022/07/29 05:34:39;;;;;;;7.32;5.43;;;33.00;96.20;;;;;;4127251;28;20476;-67
2022/07/29 05:36:54;;;;;;;6.80;5.00;;;33.00;96.20;;;;;;4129182;28;20447;-66
2022/07/29 05:38:58;;;;;;;5.00;4.50;;;33.10;95.80;;;;;;4162017;28;20045;-66
2022/07/29 05:41:03;;;;;;;5.45;4.75;;;33.20;95.50;;;;;;4126892;28;20046;-66
2022/07/29 05:43:08;;;;;;;5.20;4.35;;;33.10;95.30;;;;;;4129019;28;20501;-66
2022/07/29 05:45:13;;;;;;;5.22;4.47;;;33.10;95.50;;;;;;4128764;28;20042;-66
2022/07/29 05:47:17;;;;;;;4.90;4.38;;;33.10;95.20;;;;;;4129279;28;20145;-66
2022/07/29 05:49:24;;;;;;;5.88;4.40;;;33.20;95.30;;;;;;4125056;28;20042;-67
2022/07/29 05:51:30;;;;;;;6.18;4.47;;;33.30;95.00;;;;;;4128318;28;20105;-67
2022/07/29 05:53:34;;;;;;;6.47;4.65;;;33.40;94.90;;;;;;4129085;28;20578;-67
2022/07/29 05:55:39;;;;;;;4.90;4.00;;;33.40;94.80;;;;;;4128676;28;20047;-67
2022/07/29 05:57:46;;;;;;;4.47;3.80;;;33.30;94.50;;;;;;4128542;28;20383;-67
2022/07/29 05:59:50;;;;;;;5.20;4.38;;;33.50;94.20;;;;;;4128869;28;20042;-65
2022/07/29 06:01:56;;;;;;;7.38;4.78;;;33.70;93.70;;;;;;4128784;28;20528;-66
2022/07/29 06:04:06;;;;;;;5.63;4.80;;;33.70;94.70;;;;;;4127603;28;20097;-66
2022/07/29 06:06:11;;;;;;;5.47;4.97;;;33.60;94.80;;;;;;4127709;28;20526;-66
2022/07/29 06:08:15;;;;;;;6.55;5.05;;;33.80;95.10;;;;;;4129275;28;20191;-66
2022/07/29 06:10:22;;;;;;;5.90;4.65;;;34.10;94.70;;;;;;4128901;28;20054;-66
2022/07/29 06:12:29;;;;;;;5.45;4.53;;;34.30;94.20;;;;;;4128676;28;20046;-66
2022/07/29 06:14:33;;;;;;;6.03;5.00;;;34.30;93.90;;;;;;4128756;28;20074;-67
2022/07/29 06:16:40;;;;;;;5.43;4.50;;;34.40;93.50;;;;;;4128357;28;20058;-66
2022/07/29 06:18:44;;;;;;;5.40;4.40;;;34.30;93.60;;;;;;4128767;28;20302;-66
2022/07/29 06:20:50;;;;;;;4.50;4.10;;;34.40;93.30;;;;;;4142511;28;20144;-67
2022/07/29 06:22:55;;;;;;;5.88;4.18;;;34.40;93.10;;;;;;4144533;28;20145;-66
2022/07/29 06:25:02;;;;;;;4.57;3.83;;;34.50;92.70;;;;;;4127167;28;20057;-66
2022/07/29 06:27:07;;;;;;;8.23;5.25;;;34.70;92.30;;;;;;4127222;28;20181;-66
2022/07/29 06:29:13;;;;;;;10.13;4.30;;;34.70;92.90;;;;;;4128811;28;20057;-65
2022/07/29 06:31:18;;;;;;;6.82;4.50;;;34.80;92.80;;;;;;4127355;28;20129;-65
2022/07/29 06:33:23;;;;;;;5.28;4.25;;;34.90;92.90;;;;;;4127355;28;20134;-65
2022/07/29 06:35:28;;;;;;;5.10;4.53;;;34.70;92.90;;;;;;4128240;28;20594;-66
2022/07/29 06:37:44;;;;;;;4.78;4.28;;;34.70;93.30;;;;;;4128338;28;20050;-65
2022/07/29 06:40:59;;;;;;;4.70;4.22;;;34.60;93.60;;;;;;4128672;28;20129;-66
2022/07/29 06:42:18;;;;;;;5.10;4.18;;;34.70;93.20;;;;;;4128454;28;20078;-66
2022/07/29 06:44:24;;;;;;;5.93;4.40;;;34.80;93.50;;;;;;4127705;28;20133;-66
2022/07/29 06:46:29;;;;;;;4.78;4.28;;;34.80;92.70;;;;;;4093341;28;20059;-65
2022/07/29 06:48:33;;;;;;;5.82;4.15;;;34.80;93.20;;;;;;4112306;28;20082;-65
2022/07/29 06:50:43;;;;;;;3.22;2.92;;;35.00;92.60;;;;;;4128895;28;20069;-65
2022/07/29 06:52:48;;;;;;;4.57;3.00;;;35.00;90.60;;;;;;4127053;28;20051;-65
2022/07/29 06:54:54;;;;;;;4.78;3.10;;;35.10;90.90;;;;;;4131973;28;20123;-68
2022/07/29 06:57:01;;;;;;;3.63;2.97;;;35.30;91.30;;;;;;4133134;28;20084;-66
2022/07/29 06:59:09;;;;;;;5.00;3.17;;;35.30;91.10;;;;;;4135290;28;20085;-65
2022/07/29 07:01:15;;;;;;;3.65;3.08;;;35.40;91.20;;;;;;4133845;28;20617;-67
2022/07/29 07:03:20;;;;;;;3.70;2.85;;;35.40;90.70;;;;;;4136119;28;20315;-67
2022/07/29 07:05:25;;;;;;;6.03;3.65;;;35.40;88.30;;;;;;4134030;28;20042;-67
2022/07/29 07:07:31;;;;;;;4.50;2.92;;;35.50;89.10;;;;;;4135463;28;20049;-67
2022/07/29 07:09:36;;;;;;;3.10;2.80;;;35.50;88.40;;;;;;4137648;28;20045;-67
2022/07/29 07:11:43;;;;;;;3.10;2.80;;;35.50;85.50;;;;;;4136520;28;20073;-66
2022/07/29 07:13:52;;;;;;;3.72;2.85;;;35.50;87.30;;;;;;4093954;28;20252;-67
2022/07/29 07:16:03;;;;;;;3.78;2.83;;;35.70;87.90;;;;;;4132917;28;20528;-66
2022/07/29 07:18:07;;;;;;;5.28;3.67;;;35.80;87.70;;;;;;4135434;28;20517;-67
2022/07/29 07:20:14;;;;;;;6.60;3.28;;;35.90;87.50;;;;;;4134246;28;20077;-66
2022/07/29 07:22:19;;;;;;;4.72;3.17;;;36.00;87.60;;;;;;4129775;28;20476;-65
2022/07/29 07:24:25;;;;;;;6.75;3.60;;;36.00;87.20;;;;;;4133526;28;20030;-64
2022/07/29 07:26:29;;;;;;;6.95;3.70;;;36.00;88.60;;;;;;4135238;28;20037;-66
2022/07/29 07:28:34;;;;;;;5.32;4.30;;;36.00;88.40;;;;;;4134560;28;20108;-66
2022/07/29 07:30:39;;;;;;;5.30;3.92;;;36.20;88.70;;;;;;4134767;28;20133;-68
2022/07/29 07:32:44;;;;;;;7.38;4.10;;;36.10;89.00;;;;;;4135025;28;20104;-66
2022/07/29 07:34:49;;;;;;;5.30;4.00;;;36.20;89.80;;;;;;4134928;28;20054;-66
2022/07/29 07:36:54;;;;;;;5.75;4.13;;;36.30;90.40;;;;;;4134065;28;20136;-66
2022/07/29 07:38:58;;;;;;;6.32;4.03;;;36.20;90.10;;;;;;4132448;28;20042;-65
2022/07/29 07:41:03;;;;;;;5.88;3.85;;;36.30;90.10;;;;;;4134582;28;20042;-66
2022/07/29 07:43:07;;;;;;;4.38;3.40;;;36.30;89.50;;;;;;4134254;28;20054;-67
2022/07/29 07:45:14;;;;;;;5.38;3.90;;;36.30;89.40;;;;;;4134178;28;20050;-66
2022/07/29 07:47:23;;;;;;;5.82;3.72;;;36.30;89.80;;;;;;4134693;28;20069;-66
2022/07/29 07:49:30;;;;;;;3.53;3.17;;;36.30;89.30;;;;;;4134588;28;20070;-66
2022/07/29 07:51:39;;;;;;;4.43;3.20;;;36.20;87.90;;;;;;4140772;28;20093;-67
2022/07/29 07:53:44;;;;;;;3.17;2.72;;;36.10;87.50;;;;;;4130012;28;20146;-66
2022/07/29 07:55:48;;;;;;;5.05;3.03;;;36.10;86.40;;;;;;4130852;28;20055;-68
2022/07/29 07:58:13;;;;;;;2.90;2.70;;;36.10;86.90;;;;;;4134857;28;20116;-66
2022/07/29 08:00:19;;;;;;;3.47;3.17;;;36.10;85.90;;;;;;4134041;28;20394;-67
2022/07/29 08:02:26;;;;;;;5.72;3.50;;;36.20;85.90;;;;;;4134706;28;20099;-67
2022/07/29 08:04:31;;;;;;;3.05;2.75;;;36.20;85.60;;;;;;4134824;28;20378;-65
2022/07/29 08:06:36;;;;;;;3.83;3.00;;;36.10;85.80;;;;;;4135925;28;20481;-66
2022/07/29 08:08:41;;;;;;;3.58;2.78;;;36.20;86.00;;;;;;4135260;28;20137;-67
2022/07/29 08:10:55;;;;;;;3.40;3.10;;;36.20;86.20;;;;;;4135189;28;20034;-66
2022/07/29 08:12:59;;;;;;;3.63;3.00;;;36.10;86.30;;;;;;4129179;28;20550;-66
2022/07/29 08:15:07;;;;;;;4.90;2.90;;;36.10;84.50;;;;;;4112470;28;20046;-66
2022/07/29 08:17:12;;;;;;;3.30;2.70;;;36.10;84.70;;;;;;4132426;28;20529;-66
2022/07/29 08:19:16;;;;;;;4.15;2.78;;;36.10;83.10;;;;;;4131540;28;20077;-66
2022/07/29 08:21:21;;;;;;;3.25;2.47;;;36.10;81.90;;;;;;4129370;28;20417;-66
2022/07/29 08:23:34;;;;;;;2.95;2.55;;;36.10;82.90;;;;;;4134013;28;20050;-66
2022/07/29 08:25:52;;;;;;;3.97;2.60;;;36.10;83.00;;;;;;4141367;28;20049;-65
2022/07/29 08:27:57;;;;;;;3.10;2.67;;;36.10;83.40;;;;;;4135088;28;20067;-66
2022/07/29 08:30:02;;;;;;;3.08;2.78;;;36.20;83.60;;;;;;4135584;28;20128;-67
2022/07/29 08:32:08;;;;;;;4.35;3.20;;;36.20;84.60;;;;;;4140441;28;20038;-67
2022/07/29 08:34:13;;;;;;;5.97;2.92;;;36.20;84.70;;;;;;4155080;28;20056;-69
2022/07/29 08:36:20;;;;;;;4.47;3.30;;;36.20;84.90;;;;;;4136340;28;20046;-66
2022/07/29 08:38:27;;;;;;;4.93;3.55;;;36.10;85.90;;;;;;4138674;28;20048;-67
2022/07/29 08:40:31;;;;;;;6.22;3.47;;;36.10;86.70;;;;;;4139362;28;20451;-67
2022/07/29 08:42:36;;;;;;;7.78;3.75;;;36.10;87.30;;;;;;4137142;28;20564;-66
2022/07/29 08:44:42;;;;;;;4.38;3.60;;;36.10;87.50;;;;;;4138142;28;20043;-67
2022/07/29 08:46:48;;;;;;;11.20;4.47;;;36.10;88.00;;;;;;4137209;28;20049;-67
2022/07/29 08:48:52;;;;;;;4.80;3.50;;;36.10;88.00;;;;;;4137713;28;20480;-66
2022/07/29 08:50:59;;;;;;;5.65;3.88;;;36.20;88.50;;;;;;4134804;28;20781;-67
2022/07/29 08:53:05;;;;;;;5.43;3.53;;;36.20;88.30;;;;;;4136152;28;20038;-67
2022/07/29 08:55:13;;;;;;;4.50;3.88;;;36.20;88.50;;;;;;4138829;28;20054;-66
2022/07/29 08:57:22;;;;;;;3.88;3.47;;;36.10;88.30;;;;;;4119022;28;20138;-68
2022/07/29 08:59:29;;;;;;;4.65;3.78;;;36.10;88.30;;;;;;4134717;28;20161;-68
2022/07/29 09:01:38;;;;;;;6.10;3.60;;;36.10;88.30;;;;;;4134309;28;20416;-68
2022/07/29 09:03:47;;;;;;;;;;;36.20;88.10;;;;;;4134160;28;20153;-66
2022/07/29 09:05:51;;;;;;;4.50;3.50;;;36.10;88.20;;;;;;4133374;28;19921;-66
2022/07/29 09:07:58;;;;;;;4.28;3.40;;;36.00;88.10;;;;;;4133126;28;20047;-66
2022/07/29 09:10:05;;;;;;;4.00;3.60;;;35.90;87.70;;;;;;4130159;28;20414;-66
2022/07/29 09:12:13;;;;;;;4.57;4.00;;;35.90;87.70;;;;;;4132610;28;20047;-66
2022/07/29 09:14:36;;;;;;;4.05;3.65;;;35.90;87.90;;;;;;4159188;28;20045;-66
2022/07/29 09:16:54;;;;;;;7.07;3.90;;;35.80;88.60;;;;;;4133241;28;20074;-66
2022/07/29 09:18:59;;;;;;;6.35;3.90;;;35.80;89.00;;;;;;4130699;28;20045;-66
2022/07/29 09:23:25;;;;;;;5.15;3.90;;;35.60;89.80;;;;;;4132012;28;20137;-66
2022/07/29 09:25:38;;;;;;;5.68;4.28;;;35.60;90.00;;;;;;4130822;28;20050;-66
2022/07/29 09:27:46;;;;;;;8.02;5.63;;;35.60;90.00;;;;;;4135009;28;20058;-67
2022/07/29 09:30:05;;;;;;;7.00;5.35;;;35.50;90.00;;;;;;4149982;28;20735;-67
2022/07/29 09:32:10;;;;;;;8.90;6.28;;;35.50;90.40;;;;;;4161996;28;20411;-66
2022/07/29 09:34:16;;;;;;;13.43;8.48;;;35.50;90.50;;;;;;4133368;28;20042;-66
2022/07/29 09:36:21;;;;;;;10.13;7.70;;;35.50;90.40;;;;;;4132688;28;20112;-66
2022/07/29 09:38:26;;;;;;;6.15;5.18;;;35.50;90.50;;;;;;4133681;28;20054;-66
2022/07/29 09:40:32;;;;;;;8.77;5.53;;;35.40;90.50;;;;;;4130641;28;20046;-67
2022/07/29 09:42:37;;;;;;;7.38;5.40;;;35.40;90.60;;;;;;4134662;28;20042;-67
2022/07/29 09:44:43;;;;;;;14.02;8.55;;;35.50;90.80;;;;;;4134322;28;20050;-66
2022/07/29 09:47:08;;;;;;;11.57;8.20;;;35.50;90.60;;;;;;4133315;28;20049;-66
2022/07/29 09:49:14;;;;;;;7.80;5.82;;;35.50;90.60;;;;;;4134180;28;20045;-67
2022/07/29 09:51:19;;;;;;;8.55;5.75;;;35.50;90.50;;;;;;4134362;28;20444;-67
2022/07/29 09:53:44;;;;;;;9.70;5.75;;;35.50;90.30;;;;;;4133065;28;20348;-66
2022/07/29 09:55:50;;;;;;;8.45;5.55;;;35.50;90.40;;;;;;4132958;28;20049;-67
2022/07/29 09:57:55;;;;;;;6.78;4.60;;;35.50;90.60;;;;;;4133790;28;20045;-67
2022/07/29 10:00:09;;;;;;;7.03;4.47;;;35.50;90.40;;;;;;4142489;28;20152;-67
2022/07/29 10:02:15;;;;;;;8.50;4.85;;;35.50;90.40;;;;;;4129947;28;20046;-67
2022/07/29 10:04:38;;;;;;;5.15;4.47;;;35.50;90.30;;;;;;4128907;28;20141;-67
2022/07/29 10:06:58;;;;;;;5.47;4.63;;;35.40;90.60;;;;;;4093185;28;20106;-67
2022/07/29 10:09:09;;;;;;;4.90;4.40;;;35.40;90.50;;;;;;4134658;28;20093;-68
2022/07/29 10:11:14;;;;;;;4.93;4.28;;;35.20;90.60;;;;;;4135051;28;20384;-67
2022/07/29 10:13:21;;;;;;;8.35;4.55;;;35.30;90.70;;;;;;4137919;28;20440;-67
2022/07/29 10:15:28;;;;;;;5.50;4.60;;;35.20;90.60;;;;;;4132333;28;20097;-67
2022/07/29 10:17:33;;;;;;;5.78;4.53;;;35.20;90.70;;;;;;4135496;28;20061;-67
2022/07/29 10:19:46;;;;;;;5.03;4.47;;;35.20;90.60;;;;;;4126853;28;20165;-67
2022/07/29 10:21:50;;;;;;;10.57;7.20;;;35.30;90.60;;;;;;4129435;28;20062;-66
2022/07/29 10:24:00;;;;;;;9.32;6.68;;;35.20;90.80;;;;;;4131418;28;20038;-67
2022/07/29 10:26:07;;;;;;;8.95;7.15;;;35.20;90.80;;;;;;4132479;28;20081;-67
2022/07/29 10:28:12;;;;;;;9.48;7.28;;;35.20;90.80;;;;;;4130477;28;20100;-67
2022/07/29 10:30:19;;;;;;;9.75;7.15;;;35.20;90.90;;;;;;4131318;28;20038;-67
2022/07/29 10:32:42;;;;;;;8.40;6.65;;;35.20;91.00;;;;;;4130820;28;20509;-66
2022/07/29 10:35:27;;;;;;;8.57;5.93;;;35.20;90.90;;;;;;4131639;28;20081;-66
2022/07/29 10:37:59;;;;;;;7.70;5.28;;;35.30;90.80;;;;;;4126774;28;20748;-67
2022/07/29 10:42:53;;;;;;;6.45;4.72;;;35.40;90.80;;;;;;4127364;28;20082;-67
2022/07/29 10:44:58;;;;;;;5.35;4.85;;;35.40;90.70;;;;;;4126795;28;20642;-67
2022/07/29 10:47:02;;;;;;;5.30;4.40;;;35.30;90.80;;;;;;4128704;28;20046;-68
2022/07/29 10:49:21;;;;;;;5.90;4.65;;;35.20;90.80;;;;;;4128723;28;20039;-68
2022/07/29 10:51:47;;;;;;;6.97;4.15;;;35.10;90.90;;;;;;4128461;28;20133;-68
2022/07/29 10:53:54;;;;;;;6.90;4.25;;;35.20;90.90;;;;;;4128065;28;20065;-69
2022/07/29 10:56:00;;;;;;;6.80;4.47;;;35.20;90.90;;;;;;4129080;28;20046;-67
2022/07/29 10:58:27;;;;;;;7.05;5.00;;;35.10;91.10;;;;;;4129090;28;20051;-67
2022/07/29 11:00:32;;;;;;;5.82;4.90;;;35.00;91.40;;;;;;4128686;28;20137;-67
2022/07/29 11:02:55;;;;;;;5.97;4.45;;;34.90;91.50;;;;;;4128512;28;20053;-68
2022/07/29 11:05:01;;;;;;;7.57;4.60;;;34.90;91.70;;;;;;4129083;28;20042;-67
2022/07/29 11:07:08;;;;;;;7.47;4.47;;;34.80;91.60;;;;;;4127944;28;20047;-68
2022/07/29 11:09:19;;;;;;;5.40;4.30;;;34.80;91.70;;;;;;4128933;28;20046;-67
2022/07/29 11:11:40;;;;;;;7.65;4.80;;;34.60;91.30;;;;;;4127515;28;20050;-67
2022/07/29 11:13:54;;;;;;;6.68;4.30;;;34.60;91.50;;;;;;4128665;28;20129;-67
2022/07/29 11:16:02;;;;;;;6.28;4.30;;;34.60;91.30;;;;;;4128488;28;20046;-65
2022/07/29 11:18:06;;;;;;;6.97;4.70;;;34.50;91.40;;;;;;4128938;28;20512;-67